Aérodrome :
LOGIN :

S'inscrire | Disclaimer

   EN    FR    IT 

 










Légende :    VFR   VFR Marginal   IFR   IFR Intensif   IFR Très Intensif
Visi : 
Plafond : 
>= 8 km
>= 3000ft
5 à 8 km
1000 à 3000 ft
1500m à 5 km
500 à 1000 ft
800 à 1500m
200 à 500 ft
< 800m
< 200 ft
Symboles :   Orages  Brouillard  Fortes neiges  Fortes précipitations  Vent > 20 kt
SIGMETs :   Divers  Orages  Givrage  Turbulence  Onde Orograph.  Cendres Volcan.






- Altitude de l'aérodrome : 26 ft
- Code IATA : BIA


LFKB - Bastia

DERNIER METAR :
  • 071330Z AUTO 14006KT 9999 FEW025 17/12 Q1019 NOSIG

METARs EXPIRÉS :
  • 071300Z AUTO 12006KT 100V160 CAVOK 17/12 Q1019 NOSIG
  • 071230Z AUTO 11005KT 080V140 CAVOK 17/12 Q1019 NOSIG
  • 071200Z AUTO 10003KT 360V150 CAVOK 18/11 Q1019 NOSIG
  • 071130Z AUTO VRB02KT CAVOK 18/10 Q1019 NOSIG
  • 071100Z AUTO VRB02KT CAVOK 17/11 Q1019 NOSIG

TAF TAF LFKB
Valide du 07 à 09h jusqu'au 08 à 09h UTC


070800Z 0709/0809 22005KT 9999 FEW020 TX17/0713Z TN09/0805Z
BECMG 0709/0710 14008KT
TEMPO 0721/0809 BKN013
BECMG 0717/0719 22006KT
ATIS : +33 4 95 59 19 40



MET'MAP, la Météo Aéronautique d'un coup d'oeil ! - Copyright ORBIFLY Décembre 2007 - Disclaimer

ORBIFLY MET'MAP TEAM :

Programmation & Développement : Alexandra Zaïnal
Sur une idée originale de : Baudouin d'Aumeries
Assistance à la programmation : Marc-Olivier Méhu
Soutien technique & logistique : Manuel Goepfert

Contact : metmap@orbifly.com




SOURCES & CREDITS :

   NOAA